createdAt,value
2018-06-28T00:01:04.706Z,17.80
2018-06-28T00:03:32.851Z,17.70
2018-06-28T00:06:00.987Z,17.70
2018-06-28T00:08:29.150Z,17.70
2018-06-28T00:10:57.318Z,17.70
2018-06-28T00:13:25.736Z,17.60
2018-06-28T00:15:53.982Z,17.60
2018-06-28T00:18:22.152Z,17.60
2018-06-28T00:20:50.284Z,17.50
2018-06-28T00:23:18.400Z,17.50
2018-06-28T00:25:47.594Z,17.50
2018-06-28T00:28:15.814Z,17.50
2018-06-28T00:30:44.002Z,17.40
2018-06-28T00:33:12.138Z,17.40
2018-06-28T00:35:40.292Z,17.30
2018-06-28T00:38:08.754Z,17.30
2018-06-28T00:40:37.838Z,17.30
2018-06-28T00:43:06.010Z,17.30
2018-06-28T00:45:34.174Z,17.20
2018-06-28T00:48:02.348Z,17.20
2018-06-28T00:50:30.679Z,17.20
2018-06-28T00:52:58.882Z,17.20
2018-06-28T00:55:27.083Z,17.10
2018-06-28T00:57:55.271Z,17.10
2018-06-28T01:00:23.456Z,17.10
2018-06-28T01:02:53.265Z,17.10
2018-06-28T01:05:21.462Z,17.10
2018-06-28T01:07:49.690Z,17.00
2018-06-28T01:10:17.834Z,17.00
2018-06-28T01:12:46.070Z,16.90
2018-06-28T01:15:14.215Z,16.90
2018-06-28T01:20:11.696Z,16.90
2018-06-28T01:22:39.866Z,16.80
2018-06-28T01:25:08.004Z,16.80
2018-06-28T01:27:37.104Z,16.80
2018-06-28T01:30:06.698Z,16.80
2018-06-28T01:32:34.973Z,16.70
2018-06-28T01:35:03.129Z,16.70
2018-06-28T01:40:01.713Z,16.70
2018-06-28T01:42:47.282Z,16.70
2018-06-28T01:45:15.409Z,16.60
2018-06-28T01:47:43.590Z,16.60
2018-06-28T01:50:11.890Z,16.60
2018-06-28T01:52:40.062Z,16.60
2018-06-28T01:55:08.297Z,16.50
2018-06-28T01:57:36.484Z,16.50
2018-06-28T02:00:04.868Z,16.50
2018-06-28T02:02:33.017Z,16.50
2018-06-28T02:05:01.165Z,16.50
2018-06-28T02:07:29.309Z,16.40
2018-06-28T02:09:58.928Z,16.40
2018-06-28T02:12:27.127Z,16.40
2018-06-28T02:14:55.353Z,16.40
2018-06-28T02:17:25.691Z,16.40
2018-06-28T02:19:53.921Z,16.40
2018-06-28T02:22:22.170Z,16.30
2018-06-28T02:24:50.284Z,16.30
2018-06-28T02:27:18.599Z,16.30
2018-06-28T02:29:46.708Z,16.20
2018-06-28T02:32:16.175Z,16.20
2018-06-28T02:34:45.818Z,16.20
2018-06-28T02:37:14.025Z,16.20
2018-06-28T02:39:42.153Z,16.20
2018-06-28T02:42:10.389Z,16.20
2018-06-28T02:44:38.544Z,16.20
2018-06-28T02:47:07.025Z,16.20
2018-06-28T02:49:35.189Z,16.20
2018-06-28T02:52:03.835Z,16.20
2018-06-28T02:56:59.917Z,16.20
2018-06-28T02:59:28.107Z,16.10
2018-06-28T03:01:56.992Z,16.10
2018-06-28T03:04:25.151Z,16.10
2018-06-28T03:06:53.340Z,16.00
2018-06-28T03:09:21.676Z,16.00
2018-06-28T03:11:54.156Z,16.00
2018-06-28T03:14:23.498Z,16.00
2018-06-28T03:16:55.683Z,16.00
2018-06-28T03:19:24.742Z,16.00
2018-06-28T03:21:52.948Z,16.00
2018-06-28T03:24:21.254Z,16.10
2018-06-28T03:26:51.237Z,16.10
2018-06-28T03:29:21.297Z,16.10
2018-06-28T03:31:49.709Z,16.10
2018-06-28T03:34:17.882Z,16.10
2018-06-28T03:36:46.016Z,16.10
2018-06-28T03:41:42.716Z,16.20
2018-06-28T03:44:12.344Z,16.20
2018-06-28T03:46:40.993Z,16.20
2018-06-28T03:49:10.300Z,16.20
2018-06-28T03:51:38.420Z,16.20
2018-06-28T03:54:08.006Z,16.20
2018-06-28T03:56:36.286Z,16.20
2018-06-28T03:59:04.520Z,16.20
2018-06-28T04:01:32.737Z,16.20
2018-06-28T04:04:00.866Z,16.20
2018-06-28T04:06:29.376Z,16.20
2018-06-28T04:08:57.525Z,16.20
2018-06-28T04:11:25.664Z,16.30
2018-06-28T04:13:53.792Z,16.30
2018-06-28T04:16:21.941Z,16.30
2018-06-28T04:18:50.234Z,16.40
2018-06-28T04:21:18.351Z,16.40
2018-06-28T04:26:16.960Z,16.40
2018-06-28T04:28:45.130Z,16.50
2018-06-28T04:31:13.272Z,16.50
2018-06-28T04:33:41.478Z,16.50
2018-06-28T04:36:09.867Z,16.60
2018-06-28T04:38:38.064Z,16.70
2018-06-28T04:41:07.159Z,16.80
2018-06-28T04:43:35.522Z,16.90
2018-06-28T04:46:03.725Z,17.00
2018-06-28T04:51:00.302Z,17.30
2018-06-28T04:53:28.420Z,17.60
2018-06-28T04:55:56.772Z,18.00
2018-06-28T04:58:24.928Z,18.80
2018-06-28T05:00:53.226Z,19.70
2018-06-28T05:03:21.391Z,20.50
2018-06-28T05:05:50.182Z,21.20
2018-06-28T05:08:19.776Z,21.90
2018-06-28T05:10:48.173Z,22.40
2018-06-28T05:15:44.662Z,23.10
2018-06-28T05:18:16.282Z,23.60
2018-06-28T05:20:46.425Z,24.00
2018-06-28T05:23:14.755Z,24.30
2018-06-28T05:25:42.904Z,24.50
2018-06-28T05:28:11.690Z,24.50
2018-06-28T05:30:39.866Z,24.40
2018-06-28T05:33:08.142Z,24.60
2018-06-28T05:35:36.429Z,24.90
2018-06-28T05:38:04.697Z,24.80
2018-06-28T05:40:32.863Z,24.60
2018-06-28T05:43:01.374Z,24.50
2018-06-28T05:45:29.618Z,24.70
2018-06-28T05:50:27.401Z,24.70
2018-06-28T05:52:55.548Z,24.90
2018-06-28T05:55:23.739Z,25.00
2018-06-28T05:57:51.896Z,25.20
2018-06-28T06:00:21.868Z,25.40
2018-06-28T06:02:50.073Z,25.60
2018-06-28T06:05:18.287Z,25.40
2018-06-28T06:07:46.719Z,25.60
2018-06-28T06:10:16.081Z,25.80
2018-06-28T06:12:44.720Z,26.10
2018-06-28T06:15:13.161Z,26.20
2018-06-28T06:17:41.315Z,26.10
2018-06-28T06:20:09.539Z,26.30
2018-06-28T06:22:38.587Z,26.80
2018-06-28T06:25:06.836Z,26.80
2018-06-28T06:27:35.152Z,26.40
2018-06-28T06:30:03.335Z,26.00
2018-06-28T06:32:31.487Z,25.80
2018-06-28T06:35:00.838Z,25.80
2018-06-28T06:37:29.030Z,26.00
2018-06-28T06:39:57.366Z,26.40
2018-06-28T06:42:25.535Z,26.60
2018-06-28T06:44:54.839Z,26.60
2018-06-28T06:47:22.995Z,26.60
2018-06-28T06:49:51.447Z,26.90
2018-06-28T06:52:19.991Z,27.20
2018-06-28T06:54:48.237Z,27.20
2018-06-28T06:57:17.399Z,27.20
2018-06-28T06:59:45.851Z,27.30
2018-06-28T07:02:13.985Z,27.40
2018-06-28T07:07:10.111Z,27.00
2018-06-28T07:09:38.259Z,27.10
2018-06-28T07:12:06.461Z,27.00
2018-06-28T07:14:34.655Z,26.80
2018-06-28T07:17:02.903Z,26.90
2018-06-28T07:19:31.077Z,27.00
2018-06-28T07:21:59.461Z,27.00
2018-06-28T07:24:27.682Z,26.90
2018-06-28T07:26:55.917Z,27.00
2018-06-28T07:29:24.111Z,26.90
2018-06-28T07:31:53.299Z,26.80
2018-06-28T07:34:21.448Z,26.90
2018-06-28T07:36:49.807Z,27.00
2018-06-28T07:39:18.911Z,27.00
2018-06-28T07:41:47.097Z,27.00
2018-06-28T07:44:15.247Z,26.80
2018-06-28T07:46:44.583Z,26.40
2018-06-28T07:49:12.779Z,26.20
2018-06-28T07:51:41.025Z,26.10
2018-06-28T07:54:09.373Z,26.30
2018-06-28T07:56:38.042Z,26.50
2018-06-28T07:59:07.988Z,26.50
2018-06-28T08:01:37.069Z,26.70
2018-06-28T08:04:06.871Z,26.80
2018-06-28T08:06:35.171Z,26.90
2018-06-28T08:09:03.666Z,26.90
2018-06-28T08:11:31.838Z,27.00
2018-06-28T08:13:59.998Z,27.00
2018-06-28T08:16:28.192Z,26.90
2018-06-28T08:18:56.322Z,26.90
2018-06-28T08:21:24.685Z,26.80
2018-06-28T08:23:53.038Z,26.50
2018-06-28T08:26:21.225Z,26.40
2018-06-28T08:28:49.532Z,26.40
2018-06-28T08:31:17.703Z,26.50
2018-06-28T08:33:45.902Z,26.60
2018-06-28T08:36:14.190Z,26.70
2018-06-28T08:38:42.304Z,26.60
2018-06-28T08:41:10.484Z,26.50
2018-06-28T08:43:38.678Z,26.50
2018-06-28T08:46:06.962Z,26.60
2018-06-28T08:48:36.268Z,26.40
2018-06-28T08:51:04.476Z,26.40
2018-06-28T08:53:32.671Z,26.40
2018-06-28T08:56:01.192Z,26.40
2018-06-28T08:58:30.566Z,26.50
2018-06-28T09:00:58.792Z,26.60
2018-06-28T09:03:27.008Z,26.70
2018-06-28T09:05:55.273Z,26.60
2018-06-28T09:08:23.420Z,26.60
2018-06-28T09:10:51.580Z,26.60
2018-06-28T09:13:19.700Z,26.60
2018-06-28T09:15:48.058Z,26.40
2018-06-28T09:18:16.224Z,26.30
2018-06-28T09:20:44.616Z,26.40
2018-06-28T09:23:12.908Z,26.70
2018-06-28T09:25:43.094Z,26.70
2018-06-28T09:28:12.568Z,26.60
2018-06-28T09:30:41.058Z,26.60
2018-06-28T09:33:09.290Z,26.70
2018-06-28T09:35:37.422Z,26.60
2018-06-28T09:38:06.222Z,26.60
2018-06-28T09:40:34.459Z,26.60
2018-06-28T09:43:02.680Z,26.70
2018-06-28T09:45:30.827Z,26.90
2018-06-28T09:47:59.026Z,27.10
2018-06-28T09:50:27.229Z,27.30
2018-06-28T09:52:55.440Z,27.40
2018-06-28T09:55:23.647Z,27.60
2018-06-28T09:57:51.939Z,27.70
2018-06-28T10:00:25.420Z,27.60
2018-06-28T10:02:53.561Z,27.40
2018-06-28T10:05:21.695Z,27.40
2018-06-28T10:07:49.870Z,27.50
2018-06-28T10:10:18.121Z,27.70
2018-06-28T10:12:46.433Z,28.00
2018-06-28T10:15:14.601Z,28.20
2018-06-28T10:17:44.145Z,28.20
2018-06-28T10:20:14.019Z,27.90
2018-06-28T10:22:42.435Z,27.90
2018-06-28T10:25:10.643Z,28.10
2018-06-28T10:27:38.825Z,28.20
2018-06-28T10:30:07.333Z,28.10
2018-06-28T10:32:35.750Z,28.20
2018-06-28T10:35:03.919Z,28.20
2018-06-28T10:37:32.047Z,28.30
2018-06-28T10:42:28.675Z,28.20
2018-06-28T10:44:57.025Z,28.20
2018-06-28T10:47:28.958Z,28.10
2018-06-28T10:49:57.137Z,28.10
2018-06-28T10:54:53.537Z,27.80
2018-06-28T10:57:21.685Z,27.90
2018-06-28T10:59:49.887Z,28.00
2018-06-28T11:02:18.110Z,28.00
2018-06-28T11:04:46.632Z,27.90
2018-06-28T11:07:14.887Z,27.80
2018-06-28T11:09:43.981Z,27.80
2018-06-28T11:12:12.135Z,28.10
2018-06-28T11:14:40.965Z,28.30
2018-06-28T11:19:37.184Z,28.20
2018-06-28T11:22:05.911Z,28.20
2018-06-28T11:29:31.493Z,27.90
2018-06-28T11:31:59.700Z,27.70
2018-06-28T11:34:27.906Z,27.70
2018-06-28T11:36:56.146Z,27.80
2018-06-28T11:39:24.926Z,27.90
2018-06-28T11:41:53.162Z,28.10
2018-06-28T11:44:22.141Z,28.40
2018-06-28T11:46:51.336Z,28.80
2018-06-28T11:49:22.565Z,29.20
2018-06-28T11:51:50.724Z,29.50
2018-06-28T11:54:18.987Z,29.60
2018-06-28T11:56:47.677Z,29.50
2018-06-28T11:59:15.916Z,29.20
2018-06-28T12:01:44.064Z,28.70
2018-06-28T12:04:12.231Z,28.30
2018-06-28T12:06:40.428Z,28.20
2018-06-28T12:09:10.291Z,28.30
2018-06-28T12:11:38.777Z,28.20
2018-06-28T12:14:07.045Z,28.20
2018-06-28T12:16:35.900Z,28.10
2018-06-28T12:19:04.299Z,28.10
2018-06-28T12:21:34.117Z,28.10
2018-06-28T12:24:02.484Z,28.20
2018-06-28T12:26:30.699Z,28.30
2018-06-28T12:29:00.450Z,28.30
2018-06-28T12:31:29.783Z,28.20
2018-06-28T12:33:58.099Z,28.00
2018-06-28T12:36:26.302Z,27.90
2018-06-28T12:38:57.316Z,28.00
2018-06-28T12:43:56.341Z,28.40
2018-06-28T12:46:38.752Z,28.30
2018-06-28T12:49:07.867Z,28.10
2018-06-28T12:51:48.015Z,27.90
2018-06-28T12:54:18.539Z,27.90
2018-06-28T12:56:47.908Z,27.80
2018-06-28T12:59:20.410Z,27.80
2018-06-28T13:01:51.114Z,27.70
2018-06-28T13:04:19.544Z,27.70
2018-06-28T13:06:47.749Z,27.90
2018-06-28T13:11:44.628Z,28.00
2018-06-28T13:14:12.872Z,28.30
2018-06-28T13:16:41.044Z,28.30
2018-06-28T13:19:10.018Z,28.40
2018-06-28T13:21:39.134Z,28.60
2018-06-28T13:24:07.312Z,28.80
2018-06-28T13:26:35.578Z,29.00
2018-06-28T13:29:08.031Z,28.90
2018-06-28T13:31:37.613Z,28.80
2018-06-28T13:36:36.173Z,28.70
2018-06-28T13:39:06.041Z,28.80
2018-06-28T13:44:03.068Z,28.60
2018-06-28T13:46:31.650Z,28.60
2018-06-28T13:51:28.295Z,28.90
2018-06-28T13:53:57.838Z,29.10
2018-06-28T13:56:26.092Z,29.30
2018-06-28T13:58:59.462Z,29.30
2018-06-28T14:01:27.684Z,29.10
2018-06-28T14:03:57.034Z,28.80
2018-06-28T14:06:25.725Z,28.50
2018-06-28T14:08:54.296Z,28.20
2018-06-28T14:11:22.570Z,28.10
2018-06-28T14:13:50.824Z,28.10
2018-06-28T14:16:19.050Z,28.00
2018-06-28T14:21:16.602Z,28.20
2018-06-28T14:23:45.217Z,28.50
2018-06-28T14:26:13.425Z,28.60
2018-06-28T14:28:41.558Z,28.90
2018-06-28T14:31:09.809Z,29.30
2018-06-28T14:33:39.263Z,29.40
2018-06-28T14:36:08.609Z,29.20
2018-06-28T14:38:36.815Z,28.60
2018-06-28T14:41:04.997Z,28.30
2018-06-28T14:43:33.552Z,28.10
2018-06-28T14:46:01.745Z,27.80
2018-06-28T14:48:29.962Z,27.70
2018-06-28T14:50:59.046Z,27.70
2018-06-28T14:55:55.403Z,27.90
2018-06-28T14:58:23.604Z,27.90
2018-06-28T15:00:54.375Z,27.90
2018-06-28T15:03:22.653Z,27.60
2018-06-28T15:05:50.927Z,27.40
2018-06-28T15:08:19.188Z,27.40
2018-06-28T15:13:17.215Z,27.60
2018-06-28T15:15:46.599Z,27.90
2018-06-28T15:18:14.800Z,28.30
2018-06-28T15:20:47.373Z,28.40
2018-06-28T15:23:16.033Z,28.50
2018-06-28T15:25:44.201Z,28.20
2018-06-28T15:28:12.376Z,28.10
2018-06-28T15:30:40.961Z,28.20
2018-06-28T15:33:09.145Z,28.20
2018-06-28T15:35:38.181Z,28.40
2018-06-28T15:38:08.039Z,28.60
2018-06-28T15:40:36.314Z,28.70
2018-06-28T15:43:04.839Z,28.70
2018-06-28T15:45:33.042Z,28.70
2018-06-28T15:48:01.764Z,28.70
2018-06-28T15:50:29.901Z,28.80
2018-06-28T15:55:34.545Z,28.40
2018-06-28T15:58:03.529Z,28.30
2018-06-28T16:00:31.706Z,28.10
2018-06-28T16:02:59.993Z,28.10
2018-06-28T16:05:28.260Z,28.20
2018-06-28T16:07:56.449Z,28.20
2018-06-28T16:10:24.653Z,28.20
2018-06-28T16:12:54.187Z,28.20
2018-06-28T16:15:22.975Z,28.10
2018-06-28T16:17:51.339Z,27.80
2018-06-28T16:20:20.379Z,27.60
2018-06-28T16:22:48.698Z,27.30
2018-06-28T16:25:17.102Z,27.10
2018-06-28T16:27:45.984Z,27.00
2018-06-28T16:30:14.204Z,26.90
2018-06-28T16:35:10.646Z,26.90
2018-06-28T16:37:38.792Z,26.90
2018-06-28T16:40:07.294Z,26.90
2018-06-28T16:42:35.536Z,26.80
2018-06-28T16:45:03.782Z,26.60
2018-06-28T16:47:31.951Z,26.70
2018-06-28T16:50:00.199Z,26.60
2018-06-28T16:52:28.394Z,26.50
2018-06-28T16:54:56.710Z,26.30
2018-06-28T16:57:24.977Z,26.20
2018-06-28T16:59:54.051Z,26.20
2018-06-28T17:02:22.261Z,26.20
2018-06-28T17:04:50.522Z,26.30
2018-06-28T17:07:18.743Z,26.40
2018-06-28T17:09:47.588Z,26.60
2018-06-28T17:12:15.970Z,26.70
2018-06-28T17:14:44.189Z,26.70
2018-06-28T17:17:12.485Z,26.60
2018-06-28T17:19:46.370Z,26.60
2018-06-28T17:22:15.057Z,26.50
2018-06-28T17:24:43.224Z,26.50
2018-06-28T17:27:12.581Z,26.50
2018-06-28T17:29:40.868Z,26.60
2018-06-28T17:32:09.147Z,26.60
2018-06-28T17:34:37.361Z,26.60
2018-06-28T17:37:05.570Z,26.60
2018-06-28T17:39:33.791Z,26.60
2018-06-28T17:44:31.503Z,26.40
2018-06-28T17:46:59.766Z,26.30
2018-06-28T17:49:28.069Z,26.10
2018-06-28T17:51:56.310Z,26.10
2018-06-28T17:54:25.614Z,26.10
2018-06-28T17:59:22.028Z,25.90
2018-06-28T18:01:50.174Z,25.90
2018-06-28T18:04:18.477Z,25.90
2018-06-28T18:06:46.849Z,25.90
2018-06-28T18:09:15.134Z,25.90
2018-06-28T18:11:43.396Z,25.90
2018-06-28T18:14:11.690Z,25.80
2018-06-28T18:16:39.871Z,25.70
2018-06-28T18:19:08.131Z,25.60
2018-06-28T18:21:36.387Z,25.40
2018-06-28T18:24:04.587Z,25.40
2018-06-28T18:26:32.833Z,25.30
2018-06-28T18:29:01.088Z,25.30
2018-06-28T18:31:29.243Z,25.20
2018-06-28T18:33:57.604Z,25.20
2018-06-28T18:38:54.549Z,25.20
2018-06-28T18:41:26.586Z,25.20
2018-06-28T18:43:54.900Z,25.20
2018-06-28T18:46:23.089Z,25.10
2018-06-28T18:48:52.188Z,25.10
2018-06-28T18:51:20.503Z,25.00
2018-06-28T18:53:48.870Z,24.90
2018-06-28T18:56:17.200Z,24.90
2018-06-28T18:58:45.396Z,24.80
2018-06-28T19:01:13.712Z,24.70
2018-06-28T19:06:10.892Z,24.70
2018-06-28T19:08:39.127Z,24.60
2018-06-28T19:11:07.802Z,24.50
2018-06-28T19:13:41.622Z,24.40
2018-06-28T19:16:15.467Z,24.40
2018-06-28T19:18:44.099Z,24.30
2018-06-28T19:21:17.771Z,24.30
2018-06-28T19:23:51.498Z,24.20
2018-06-28T19:26:20.252Z,24.10
2018-06-28T19:28:48.878Z,24.00
2018-06-28T19:31:22.935Z,23.90
2018-06-28T19:33:51.648Z,23.90
2018-06-28T19:36:19.909Z,23.80
2018-06-28T19:38:54.833Z,23.70
2018-06-28T19:41:28.546Z,23.60
2018-06-28T19:43:57.222Z,23.60
2018-06-28T19:46:25.391Z,23.50
2018-06-28T19:48:54.081Z,23.50
2018-06-28T19:51:28.428Z,23.40
2018-06-28T19:53:57.437Z,23.30
2018-06-28T19:56:25.903Z,23.20
2018-06-28T19:58:54.057Z,23.10
2018-06-28T20:01:27.615Z,23.00
2018-06-28T20:04:01.336Z,22.90
2018-06-28T20:06:30.430Z,22.80
2018-06-28T20:08:58.635Z,22.80
2018-06-28T20:11:26.857Z,22.70
2018-06-28T20:14:00.451Z,22.60
2018-06-28T20:16:33.912Z,22.50
2018-06-28T20:19:07.644Z,22.50
2018-06-28T20:21:36.342Z,22.40
2018-06-28T20:24:04.504Z,22.40
2018-06-28T20:26:38.168Z,22.30
2018-06-28T20:29:12.029Z,22.20
2018-06-28T20:31:45.718Z,22.20
2018-06-28T20:34:14.568Z,22.10
2018-06-28T20:36:42.974Z,22.10
2018-06-28T20:39:11.339Z,22.00
2018-06-28T20:41:39.648Z,22.00
2018-06-28T20:44:07.800Z,21.90
2018-06-28T20:46:38.690Z,21.90
2018-06-28T20:49:07.546Z,21.80
2018-06-28T20:51:35.818Z,21.80
2018-06-28T20:54:04.305Z,21.70
2018-06-28T20:56:32.480Z,21.70
2018-06-28T20:59:00.751Z,21.60
2018-06-28T21:01:28.877Z,21.60
2018-06-28T21:03:57.066Z,21.50
2018-06-28T21:06:25.221Z,21.50
2018-06-28T21:08:53.661Z,21.50
2018-06-28T21:11:21.832Z,21.40
2018-06-28T21:13:51.270Z,21.40
2018-06-28T21:16:20.248Z,21.30
2018-06-28T21:18:48.440Z,21.30
2018-06-28T21:21:16.880Z,21.20
2018-06-28T21:23:45.377Z,21.20
2018-06-28T21:26:13.807Z,21.10
2018-06-28T21:28:42.009Z,21.10
2018-06-28T21:31:10.154Z,21.10
2018-06-28T21:33:39.532Z,21.00
2018-06-28T21:36:07.711Z,21.00
2018-06-28T21:38:36.145Z,20.90
2018-06-28T21:41:04.862Z,20.90
2018-06-28T21:43:33.036Z,20.80
2018-06-28T21:46:01.348Z,20.80
2018-06-28T21:48:29.811Z,20.80
2018-06-28T21:50:58.091Z,20.70
2018-06-28T21:53:26.427Z,20.70
2018-06-28T21:55:54.656Z,20.70
2018-06-28T21:58:23.000Z,20.60
2018-06-28T22:00:51.165Z,20.60
2018-06-28T22:03:19.861Z,20.50
2018-06-28T22:05:48.463Z,20.50
2018-06-28T22:08:17.204Z,20.50
2018-06-28T22:10:45.672Z,20.40
2018-06-28T22:13:14.281Z,20.40
2018-06-28T22:15:44.171Z,20.40
2018-06-28T22:18:12.416Z,20.30
2018-06-28T22:20:40.543Z,20.30
2018-06-28T22:23:08.737Z,20.30
2018-06-28T22:25:37.842Z,20.30
2018-06-28T22:28:06.328Z,20.20
2018-06-28T22:33:02.866Z,20.10
2018-06-28T22:35:31.050Z,20.10
2018-06-28T22:37:59.649Z,20.00
2018-06-28T22:40:28.266Z,20.00
2018-06-28T22:42:58.031Z,20.00
2018-06-28T22:45:26.252Z,20.00
2018-06-28T22:47:54.366Z,19.90
2018-06-28T22:50:22.533Z,19.90
2018-06-28T22:52:50.746Z,19.80
2018-06-28T22:55:18.896Z,19.80
2018-06-28T22:57:47.426Z,19.80
2018-06-28T23:00:20.710Z,19.80
2018-06-28T23:02:48.931Z,19.70
2018-06-28T23:05:17.123Z,19.70
2018-06-28T23:07:45.251Z,19.70
2018-06-28T23:10:13.441Z,19.70
2018-06-28T23:12:41.653Z,19.70
2018-06-28T23:15:10.333Z,19.70
2018-06-28T23:17:38.510Z,19.60
2018-06-28T23:20:07.244Z,19.60
2018-06-28T23:22:49.603Z,19.60
2018-06-28T23:25:17.885Z,19.60
2018-06-28T23:27:46.931Z,19.50
2018-06-28T23:30:16.737Z,19.50
2018-06-28T23:32:44.859Z,19.50
2018-06-28T23:35:12.987Z,19.40
2018-06-28T23:37:41.138Z,19.30
2018-06-28T23:40:09.270Z,19.30
2018-06-28T23:42:38.846Z,19.20
2018-06-28T23:45:07.707Z,19.20
2018-06-28T23:47:35.910Z,19.20
2018-06-28T23:50:04.638Z,19.20
2018-06-28T23:52:32.800Z,19.20
2018-06-28T23:55:01.457Z,19.20
2018-06-28T23:57:30.779Z,19.10
